Time;durP1;ratioP1;P1;durP2;ratioP2;P2;SDS_P1;SDS_P2;PMS_P1;PMS_P2;Temp;Humidity;BMP_temperature;BMP_pressure;BME280_temperature;BME280_humidity;BME280_pressure;Samples;Min_cycle;Max_cycle;Signal;HPM_P1;HPM_P2
2022/12/02 03:35:51;;;;;;;36.77;7.17;;;;;;;3.06;100.00;148435.31;1781558;80;23127;-66
2022/12/02 03:38:17;;;;;;;28.95;7.92;;;;;;;3.03;100.00;148427.58;1755774;81;20920;-66
2022/12/02 03:40:44;;;;;;;41.20;7.67;;;;;;;3.04;100.00;148430.16;1755733;81;21448;-66
2022/12/02 03:43:11;;;;;;;36.15;7.97;;;;;;;3.05;100.00;148432.73;1755613;81;20924;-66
2022/12/02 03:45:38;;;;;;;28.47;7.25;;;;;;;3.04;100.00;148430.16;1755767;81;20971;-66
2022/12/02 03:48:05;;;;;;;31.30;6.78;;;;;;;3.04;100.00;148430.16;1755669;80;21346;-66
2022/12/02 03:50:32;;;;;;;30.82;7.47;;;;;;;3.04;100.00;148430.16;1755803;81;21303;-66
2022/12/02 03:52:59;;;;;;;28.07;7.28;;;;;;;3.04;100.00;148430.16;1755722;81;21346;-66
2022/12/02 03:55:26;;;;;;;33.00;7.75;;;;;;;3.04;100.00;148428.84;1755641;81;20834;-66
2022/12/02 03:57:53;;;;;;;29.05;6.83;;;;;;;3.05;100.00;148431.42;1755788;81;20932;-66
2022/12/02 04:00:19;;;;;;;42.10;7.40;;;;;;;3.07;100.00;148436.58;1755671;81;20959;-66
2022/12/02 04:02:46;;;;;;;25.97;7.00;;;;;;;3.10;100.00;148445.62;1755793;81;21026;-66
2022/12/02 04:05:13;;;;;;;30.57;7.37;;;;;;;3.11;100.00;148446.94;1755773;81;21265;-67
2022/12/02 04:07:40;;;;;;;27.42;6.67;;;;;;;3.11;100.00;148448.20;1755799;80;20889;-65
2022/12/02 04:10:09;;;;;;;20.08;6.28;;;;;;;3.11;100.00;148448.20;1755527;81;20980;-65
2022/12/02 04:12:35;;;;;;;28.05;7.40;;;;;;;3.10;100.00;148445.62;1755782;81;21337;-66
2022/12/02 04:15:03;;;;;;;26.65;6.78;;;;;;;3.10;100.00;148445.62;1755714;81;20905;-65
2022/12/02 04:17:30;;;;;;;30.97;6.87;;;;;;;3.11;100.00;148448.20;1755746;81;21309;-65
2022/12/02 04:19:57;;;;;;;21.80;6.08;;;;;;;3.13;100.00;148453.36;1755676;81;21428;-66
2022/12/02 04:22:24;;;;;;;19.75;7.40;;;;;;;3.13;100.00;148453.36;1755864;81;20881;-66
2022/12/02 04:24:51;;;;;;;30.82;7.17;;;;;;;3.12;100.00;148450.78;1755603;81;21034;-65
2022/12/02 04:27:17;;;;;;;27.30;6.37;;;;;;;3.12;100.00;148450.78;1755736;81;21041;-66
2022/12/02 04:29:44;;;;;;;37.38;7.37;;;;;;;3.11;100.00;147135.39;1755797;81;21847;-67
2022/12/02 04:32:11;;;;;;;25.62;6.60;;;;;;;3.10;100.00;146288.63;1755607;81;20900;-66
2022/12/02 04:34:38;;;;;;;22.40;7.20;;;;;;;3.07;100.00;146711.73;1757678;81;20963;-66
2022/12/02 04:37:04;;;;;;;26.48;7.25;;;;;;;3.06;100.00;147592.28;1760689;81;20987;-66
2022/12/02 04:39:31;;;;;;;28.45;6.95;;;;;;;3.04;100.00;147427.44;1760778;81;20912;-66
2022/12/02 04:41:58;;;;;;;28.25;7.47;;;;;;;3.01;100.00;146799.67;1760717;81;21257;-66
2022/12/02 04:44:25;;;;;;;25.15;6.33;;;;;;;3.01;100.00;144050.05;1760738;81;20912;-66
2022/12/02 04:46:52;;;;;;;21.15;5.80;;;;;;;2.98;100.00;139149.47;1760974;81;21378;-66
2022/12/02 04:49:19;;;;;;;28.70;6.72;;;;;;;2.97;100.00;136577.33;1760740;81;20979;-66
2022/12/02 04:51:46;;;;;;;21.45;5.70;;;;;;;2.94;100.00;132120.66;1760851;81;20888;-66
2022/12/02 04:54:13;;;;;;;22.00;6.00;;;;;;;2.93;100.00;129041.23;1760715;81;21232;-66
2022/12/02 04:56:39;;;;;;;22.37;6.37;;;;;;;2.91;100.00;123403.58;1760687;81;20959;-66
2022/12/02 04:59:06;;;;;;;20.57;6.35;;;;;;;2.90;100.00;119308.41;1760772;81;21222;-66
2022/12/02 05:01:33;;;;;;;21.25;5.42;;;;;;;2.88;100.00;113856.92;1760584;81;21345;-65
2022/12/02 05:04:00;;;;;;;24.50;6.25;;;;;;;2.87;100.00;108075.38;1760851;81;20967;-66
2022/12/02 05:06:27;;;;;;;19.48;6.75;;;;;;;2.83;100.00;102129.59;1760828;81;20983;-67
2022/12/02 05:08:53;;;;;;;17.98;6.37;;;;;;;2.82;100.00;98229.59;1760670;81;20983;-66
2022/12/02 05:11:20;;;;;;;22.70;6.65;;;;;;;2.80;100.00;93319.39;1760787;81;20924;-66
2022/12/02 05:13:47;;;;;;;22.07;5.60;;;;;;;2.78;100.00;88077.88;1760708;81;21037;-66
2022/12/02 05:16:14;;;;;;;22.50;6.35;;;;;;;2.78;100.00;85208.66;1760815;81;20888;-67
2022/12/02 05:18:41;;;;;;;22.82;6.17;;;;;;;2.78;100.00;81330.57;1760654;81;22205;-66
2022/12/02 05:21:27;;;;;;;24.18;5.78;;;;;;;2.76;100.00;77790.75;1760512;81;20964;-68
2022/12/02 05:23:53;;;;;;;18.82;5.75;;;;;;;2.75;100.00;72406.86;1760741;81;21361;-68
2022/12/02 05:26:20;;;;;;;17.62;5.90;;;;;;;2.73;100.00;68540.95;1760611;81;21389;-67
2022/12/02 05:28:47;;;;;;;16.48;5.25;;;;;;;2.72;100.00;64848.52;1760831;81;20975;-67
2022/12/02 05:31:14;;;;;;;28.05;6.08;;;;;;;2.72;100.00;62334.64;1760658;81;21245;-67
2022/12/02 05:33:41;;;;;;;24.35;6.60;;;;;;;2.72;100.00;60912.98;1760541;81;21322;-67
2022/12/02 05:36:11;;;;;;;16.07;5.78;;;;;;;2.74;100.00;59250.47;1760605;81;20979;-66
2022/12/02 05:38:39;;;;;;;22.98;6.40;;;;;;;2.72;100.00;56307.80;1760654;81;20893;-68
2022/12/02 05:41:06;;;;;;;14.23;5.17;;;;;;;2.74;100.00;53968.23;1760506;81;20956;-68
2022/12/02 05:43:39;;;;;;;16.02;5.42;;;;;;;2.74;100.00;52129.96;1760706;81;21252;-68
2022/12/02 05:46:15;;;;;;;26.55;6.12;;;;;;;2.77;100.00;48959.77;1760766;81;20967;-68
2022/12/02 05:48:43;;;;;;;21.02;6.22;;;;;;;2.80;100.00;46125.79;1760283;81;20873;-68
2022/12/02 05:51:14;;;;;;;24.47;6.17;;;;;;;2.83;100.00;44794.18;1760934;81;20892;-68
2022/12/02 05:53:41;;;;;;;17.52;5.80;;;;;;;2.83;100.00;44627.45;1760814;81;21421;-68
2022/12/02 05:56:24;;;;;;;18.02;5.85;;;;;;;2.85;100.00;43795.52;1760718;81;21253;-68
2022/12/02 05:58:52;;;;;;;22.00;5.75;;;;;;;2.87;100.00;43463.34;1760630;81;20869;-66
2022/12/02 06:01:22;;;;;;;17.50;5.65;;;;;;;2.90;100.00;42965.32;1760591;81;21049;-66
2022/12/02 06:03:50;;;;;;;14.18;5.37;;;;;;;2.92;100.00;42966.88;1760656;81;20932;-69
2022/12/02 06:06:21;;;;;;;20.97;6.03;;;;;;;2.95;100.00;42469.25;1760751;81;20980;-68
2022/12/02 06:08:48;;;;;;;16.00;6.47;;;;;;;2.99;100.00;43472.48;1760682;81;21225;-66
2022/12/02 06:11:28;;;;;;;18.25;6.37;;;;;;;2.99;100.00;46308.13;1760650;81;20845;-67
2022/12/02 06:14:00;;;;;;;19.05;5.87;;;;;;;3.00;100.00;49814.27;1760570;81;20848;-66
2022/12/02 06:16:29;;;;;;;17.95;5.83;;;;;;;3.00;100.00;54326.97;1760997;81;20940;-66
2022/12/02 06:18:58;;;;;;;17.80;6.00;;;;;;;3.04;100.00;58340.40;1760818;80;20991;-66
2022/12/02 06:21:26;;;;;;;17.30;5.87;;;;;;;3.05;100.00;61634.33;1733504;81;21275;-68
2022/12/02 06:23:56;;;;;;;15.30;6.22;;;;;;;3.07;100.00;63377.41;1760600;81;20889;-68
2022/12/02 06:26:23;;;;;;;12.55;5.20;;;;;;;3.10;100.00;67912.29;1760744;81;20979;-66
2022/12/02 06:28:58;;;;;;;14.50;4.92;;;;;;;3.12;100.00;74135.14;1760755;81;20964;-68
2022/12/02 06:31:34;;;;;;;;;;;;;;;3.11;100.00;82219.53;1763433;81;20916;-68
2022/12/02 06:34:11;;;;;;;15.25;5.35;;;;;;;3.12;100.00;89311.70;1760680;81;24468;-69
2022/12/02 06:36:38;;;;;;;18.57;4.80;;;;;;;3.11;100.00;97600.93;1753785;81;20940;-68
2022/12/02 06:39:22;;;;;;;17.20;5.17;;;;;;;3.09;100.00;106756.97;1755088;81;20878;-68
2022/12/02 06:41:50;;;;;;;13.98;4.95;;;;;;;3.07;100.00;114914.91;1750271;81;20979;-66
2022/12/02 06:47:38;;;;;;;17.55;5.15;;;;;;;3.03;100.00;145950.23;1755153;81;20976;-68
2022/12/02 06:50:25;;;;;;;12.95;4.92;;;;;;;3.01;100.00;148423.69;1755212;81;20869;-68
2022/12/02 06:52:52;;;;;;;10.45;4.12;;;;;;;3.00;100.00;148419.84;1754994;80;20935;-67
2022/12/02 06:55:24;;;;;;;17.70;5.40;;;;;;;2.98;100.00;148415.95;1754984;80;20885;-68
2022/12/02 06:57:51;;;;;;;11.57;4.10;;;;;;;2.98;100.00;148414.64;1755131;81;20885;-67
2022/12/02 07:00:19;;;;;;;7.85;3.40;;;;;;;2.99;100.00;148418.53;1754963;81;21184;-67
2022/12/02 07:02:46;;;;;;;8.30;3.67;;;;;;;2.99;100.00;148417.27;1755008;81;20909;-67
2022/12/02 07:05:20;;;;;;;11.43;3.90;;;;;;;2.97;100.00;148413.37;1755174;81;20928;-66
2022/12/02 07:07:46;;;;;;;10.53;4.30;;;;;;;2.96;100.00;148409.48;1754906;81;20850;-68
2022/12/02 07:10:20;;;;;;;9.40;3.25;;;;;;;2.97;100.00;148412.06;1754999;81;21360;-66
2022/12/02 07:12:47;;;;;;;10.20;3.77;;;;;;;2.97;100.00;148412.06;1754545;81;21155;-68
2022/12/02 07:15:32;;;;;;;10.30;3.17;;;;;;;2.99;100.00;148417.27;1755058;81;20912;-68
2022/12/02 07:18:13;;;;;;;9.63;3.42;;;;;;;3.00;100.00;148419.84;1721115;81;20908;-69
2022/12/02 07:20:42;;;;;;;9.28;3.87;;;;;;;3.00;100.00;148421.11;1754204;81;20959;-68
2022/12/02 07:23:21;;;;;;;11.25;4.08;;;;;;;2.97;100.00;148413.37;1754991;81;21060;-68
2022/12/02 07:25:56;;;;;;;8.48;3.37;;;;;;;2.96;100.00;148409.48;1755114;80;21847;-68
2022/12/02 15:19:55;;;;;;;12.10;5.20;;;;;;;1.58;100.00;148066.52;1852469;77;22666;-63
2022/12/02 15:22:24;;;;;;;9.48;5.00;;;;;;;1.52;100.00;148051.06;1829169;78;20928;-63
2022/12/02 15:24:53;;;;;;;12.18;4.67;;;;;;;1.53;100.00;148053.64;1828755;78;21240;-63
2022/12/02 15:27:21;;;;;;;12.15;5.58;;;;;;;1.51;100.00;148048.50;1828673;78;20924;-64
2022/12/02 15:29:50;;;;;;;10.13;5.25;;;;;;;1.51;100.00;148048.50;1796352;80;20861;-63
2022/12/02 15:32:17;;;;;;;10.18;5.33;;;;;;;1.51;100.00;148048.50;1828885;78;21373;-63
2022/12/02 15:34:43;;;;;;;11.05;4.65;;;;;;;1.49;100.00;148043.34;1829038;78;21242;-63
2022/12/02 15:37:10;;;;;;;9.28;4.90;;;;;;;1.48;100.00;148040.77;1796346;78;21501;-63
2022/12/02 15:39:37;;;;;;;13.58;5.28;;;;;;;1.48;100.00;148040.77;1828787;78;21398;-64
2022/12/02 15:42:04;;;;;;;15.72;5.10;;;;;;;1.47;100.00;148038.19;1828799;78;21003;-64
2022/12/02 15:44:30;;;;;;;12.18;5.17;;;;;;;1.46;100.00;148035.62;1828831;78;20893;-64
2022/12/02 15:46:57;;;;;;;11.00;4.83;;;;;;;1.43;100.00;148029.16;1794600;80;21389;-64
2022/12/02 15:49:24;;;;;;;10.90;5.35;;;;;;;1.42;100.00;148027.84;1828875;78;21188;-64
2022/12/02 15:51:51;;;;;;;11.20;5.30;;;;;;;1.42;100.00;148027.84;1828850;78;20900;-64
2022/12/02 15:54:17;;;;;;;16.75;6.05;;;;;;;1.42;100.00;148027.84;1796274;80;20939;-64
2022/12/02 15:56:44;;;;;;;12.43;5.70;;;;;;;1.42;100.00;148027.84;1828924;78;20980;-65
2022/12/02 15:59:11;;;;;;;13.60;5.50;;;;;;;1.43;100.00;148029.16;1828776;78;20964;-64
2022/12/02 16:01:38;;;;;;;14.03;6.03;;;;;;;1.43;100.00;148030.42;1828919;78;21178;-64
2022/12/02 16:04:05;;;;;;;9.33;5.45;;;;;;;1.45;100.00;148033.05;1796172;80;20951;-63
2022/12/02 16:06:33;;;;;;;13.65;6.00;;;;;;;1.45;100.00;148033.05;1828994;78;20975;-63
2022/12/02 16:09:00;;;;;;;14.63;5.75;;;;;;;1.43;100.00;148030.42;1828695;78;20928;-64
2022/12/02 16:11:26;;;;;;;12.82;5.97;;;;;;;1.43;100.00;148030.42;1796243;79;21046;-64
2022/12/02 16:13:53;;;;;;;14.90;6.42;;;;;;;1.44;100.00;148031.73;1828864;78;21130;-64
2022/12/02 16:16:20;;;;;;;15.08;6.80;;;;;;;1.43;100.00;148030.42;1828756;78;20873;-63
2022/12/02 16:18:48;;;;;;;14.35;6.33;;;;;;;1.45;100.00;148034.31;1796014;80;21380;-64
2022/12/02 16:21:16;;;;;;;13.35;6.08;;;;;;;1.44;100.00;148031.73;1828216;78;21023;-64
2022/12/02 16:23:42;;;;;;;13.05;6.12;;;;;;;1.45;100.00;148034.31;1793930;80;20913;-65
2022/12/02 16:26:11;;;;;;;11.73;5.83;;;;;;;1.45;100.00;148033.05;1828044;78;22253;-64
2022/12/02 16:28:39;;;;;;;17.17;6.55;;;;;;;1.40;100.00;148022.69;1795361;78;20884;-64
2022/12/02 16:31:06;;;;;;;13.22;5.53;;;;;;;1.39;100.00;148020.13;1828094;78;21389;-65
2022/12/02 16:33:32;;;;;;;16.80;6.55;;;;;;;1.38;100.00;148016.28;1795375;79;20892;-65
2022/12/02 16:35:59;;;;;;;13.43;6.10;;;;;;;1.38;100.00;148017.55;1828137;78;20810;-66
2022/12/02 16:38:26;;;;;;;12.82;6.20;;;;;;;1.36;100.00;148012.39;1828307;78;22194;-66
2022/12/02 16:40:53;;;;;;;13.43;6.53;;;;;;;1.37;100.00;148014.97;1828251;78;20853;-65
2022/12/02 16:43:20;;;;;;;14.33;6.60;;;;;;;1.36;100.00;148012.39;1828296;77;20928;-65
2022/12/02 16:45:46;;;;;;;14.10;6.78;;;;;;;1.34;100.00;148007.25;1795721;79;20998;-65
2022/12/02 16:48:13;;;;;;;17.10;6.65;;;;;;;1.34;100.00;148007.25;1828260;78;21073;-65
2022/12/02 16:50:39;;;;;;;14.98;6.53;;;;;;;1.35;100.00;148009.81;1828221;77;21331;-65
2022/12/02 16:53:06;;;;;;;15.78;7.08;;;;;;;1.34;100.00;148007.25;1795573;80;20936;-66
2022/12/02 16:55:33;;;;;;;13.38;6.90;;;;;;;1.36;100.00;148011.14;1828165;77;20893;-65
2022/12/02 16:57:59;;;;;;;16.77;7.20;;;;;;;1.34;100.00;148005.98;1795715;80;20916;-65
2022/12/02 17:00:26;;;;;;;20.48;7.28;;;;;;;1.34;100.00;148007.25;1795765;80;21385;-65
2022/12/02 17:02:53;;;;;;;12.30;6.25;;;;;;;1.33;100.00;148004.67;1828253;78;21240;-65
2022/12/02 17:05:19;;;;;;;14.45;6.75;;;;;;;1.32;100.00;148002.09;1828117;78;20885;-65
2022/12/02 17:07:46;;;;;;;12.07;6.25;;;;;;;1.32;100.00;148002.09;1793930;80;21000;-65
2022/12/02 17:10:13;;;;;;;12.20;6.12;;;;;;;1.31;100.00;147999.53;1828226;78;21504;-65
2022/12/02 17:12:40;;;;;;;14.50;6.70;;;;;;;1.32;100.00;148002.09;1828388;78;20908;-65
2022/12/02 17:15:10;;;;;;;17.35;7.08;;;;;;;1.32;100.00;148002.09;1828280;78;21954;-65
2022/12/02 17:17:37;;;;;;;18.67;7.17;;;;;;;1.32;100.00;148002.09;1828103;78;21318;-65
2022/12/02 17:20:06;;;;;;;15.58;6.90;;;;;;;1.33;100.00;148004.67;1793836;79;21016;-65
2022/12/02 17:22:33;;;;;;;11.80;5.97;;;;;;;1.33;100.00;148004.67;1828513;78;21342;-65
2022/12/02 17:24:59;;;;;;;13.30;6.80;;;;;;;1.34;100.00;148007.25;1828245;77;20869;-65
2022/12/02 17:27:27;;;;;;;17.90;6.95;;;;;;;1.33;100.00;148003.41;1828315;78;21204;-65
2022/12/02 17:29:55;;;;;;;14.55;6.97;;;;;;;1.33;100.00;148004.67;1828096;78;20991;-65
2022/12/02 17:32:21;;;;;;;14.05;6.90;;;;;;;1.34;100.00;148005.98;1794029;80;20888;-63
2022/12/02 17:34:48;;;;;;;13.95;7.12;;;;;;;1.33;100.00;148004.67;1828153;78;20921;-65
2022/12/02 17:37:15;;;;;;;14.50;7.58;;;;;;;1.34;100.00;148007.25;1828259;78;22333;-64
2022/12/02 17:39:42;;;;;;;13.10;7.28;;;;;;;1.34;100.00;148007.25;1828251;78;21244;-64
2022/12/02 17:42:09;;;;;;;12.88;7.28;;;;;;;1.34;100.00;148005.98;1828076;78;21306;-64
2022/12/02 17:44:35;;;;;;;15.72;7.95;;;;;;;1.33;100.00;148004.67;1827994;78;20928;-64
2022/12/02 17:47:03;;;;;;;17.02;8.03;;;;;;;1.32;100.00;148002.09;1828039;78;21350;-65
2022/12/02 17:49:29;;;;;;;14.63;7.47;;;;;;;1.31;100.00;147998.22;1828168;78;21398;-64
2022/12/02 17:51:56;;;;;;;15.13;7.12;;;;;;;1.31;100.00;147999.53;1828124;78;22149;-64
2022/12/02 17:54:23;;;;;;;14.28;6.95;;;;;;;1.31;100.00;147998.22;1828263;78;21374;-64
2022/12/02 17:56:50;;;;;;;15.20;8.10;;;;;;;1.32;100.00;148002.09;1828184;78;20975;-64
2022/12/02 17:59:16;;;;;;;19.30;8.25;;;;;;;1.31;100.00;147999.53;1827964;78;21437;-64
2022/12/02 18:01:43;;;;;;;15.63;8.18;;;;;;;1.33;100.00;148003.41;1828197;78;20981;-64
2022/12/02 18:04:10;;;;;;;14.80;7.25;;;;;;;1.32;100.00;148002.09;1828077;78;21246;-66
2022/12/02 18:06:37;;;;;;;15.80;7.97;;;;;;;1.31;100.00;147999.53;1795519;79;20891;-64
2022/12/02 18:09:04;;;;;;;19.62;8.33;;;;;;;1.30;100.00;147996.95;1828210;78;21794;-64
2022/12/02 18:11:31;;;;;;;16.05;8.18;;;;;;;1.29;100.00;147994.38;1828163;78;20921;-64
2022/12/02 18:13:58;;;;;;;17.55;8.30;;;;;;;1.30;100.00;147996.95;1828299;78;20908;-64
2022/12/02 18:16:25;;;;;;;15.68;7.87;;;;;;;1.29;100.00;147994.38;1828090;78;21201;-64
2022/12/02 18:18:52;;;;;;;20.25;7.92;;;;;;;1.27;100.00;147990.50;1788419;79;20977;-64
2022/12/02 18:21:18;;;;;;;15.00;7.87;;;;;;;1.26;100.00;147986.66;1801044;79;20956;-64
2022/12/02 18:23:45;;;;;;;16.50;7.40;;;;;;;1.24;100.00;147981.50;1801045;79;20881;-64
2022/12/02 18:26:12;;;;;;;16.90;7.10;;;;;;;1.21;100.00;147975.05;1800773;79;20944;-64
2022/12/02 18:28:38;;;;;;;16.05;7.60;;;;;;;1.20;100.00;147971.16;1800938;78;21847;-64
2022/12/02 18:31:05;;;;;;;16.23;7.50;;;;;;;1.18;100.00;147966.02;1800840;79;20912;-64
2022/12/02 18:33:34;;;;;;;17.70;7.37;;;;;;;1.18;100.00;147966.02;1800914;78;20879;-64
2022/12/02 18:36:00;;;;;;;16.60;7.42;;;;;;;1.17;100.00;147964.75;1800741;79;20872;-64
2022/12/02 18:38:27;;;;;;;14.58;8.28;;;;;;;1.16;100.00;147960.86;1801012;79;20876;-64
2022/12/02 18:40:53;;;;;;;14.85;8.50;;;;;;;1.17;100.00;147963.44;1800991;79;21226;-64
2022/12/02 18:43:20;;;;;;;15.60;8.05;;;;;;;1.16;100.00;147960.86;1800834;79;20998;-64
2022/12/02 18:45:47;;;;;;;19.02;8.15;;;;;;;1.17;100.00;147964.75;1800900;78;21361;-64
2022/12/02 18:48:14;;;;;;;16.62;7.42;;;;;;;1.18;100.00;147966.02;1800886;79;20995;-64
2022/12/02 18:50:41;;;;;;;17.62;8.10;;;;;;;1.17;100.00;147963.44;1801031;79;20940;-64
2022/12/02 18:53:07;;;;;;;19.15;7.80;;;;;;;1.16;100.00;147962.17;1801003;79;21142;-64
2022/12/02 18:55:36;;;;;;;18.57;7.90;;;;;;;1.14;100.00;147958.28;1800861;78;20872;-65
2022/12/02 18:58:03;;;;;;;15.68;7.55;;;;;;;1.13;100.00;147955.72;1800511;78;20920;-65
2022/12/02 19:00:30;;;;;;;20.05;8.65;;;;;;;1.12;100.00;147953.14;1801127;78;20971;-66
2022/12/02 19:02:57;;;;;;;15.55;7.65;;;;;;;1.12;100.00;147953.14;1801047;79;20955;-64
2022/12/02 19:05:23;;;;;;;22.52;8.65;;;;;;;1.11;100.00;147950.56;1801102;79;21126;-64
2022/12/02 19:07:51;;;;;;;18.02;7.55;;;;;;;1.10;100.00;147947.98;1800933;78;21476;-64
2022/12/02 19:10:18;;;;;;;21.73;8.73;;;;;;;1.10;100.00;147946.69;1800808;79;21341;-64
